N38DZ KSYR-KSWF
Flight info
| Callsign | N38DZ |
|---|---|
| Flight time | N/A |
| Altitude | 7000 |
| Route | FILPS |
| Aircraft | BE58/L-SDFGRY/C |
Departure
| Time | 2026-04-25 01:55 |
|---|---|
| Airport | Syracuse Hancock International Airport (KSYR) |
Arrival
| Time | N/A |
|---|---|
| Airport | New York Stewart International Airport (KSWF) |
| Time | Latitude | Longitude | Altitude | Speed | Heading |
|---|---|---|---|---|---|
| 2026-04-25 01:41 | 43.10550 | -76.11366 | 415 ft | 0 kts | 118° |
| 2026-04-25 01:49 | 43.10548 | -76.11342 | 413 ft | 7 kts | 62° |
| 2026-04-25 01:49 | 43.10565 | -76.11339 | 411 ft | 7 kts | 345° |
| 2026-04-25 01:49 | 43.10618 | -76.11317 | 413 ft | 9 kts | 34° |
| 2026-04-25 01:50 | 43.10629 | -76.11266 | 413 ft | 9 kts | 88° |
| 2026-04-25 01:50 | 43.10632 | -76.11150 | 414 ft | 10 kts | 88° |
| 2026-04-25 01:50 | 43.10635 | -76.11084 | 414 ft | 11 kts | 85° |
| 2026-04-25 01:50 | 43.10637 | -76.10969 | 412 ft | 14 kts | 89° |
| 2026-04-25 01:51 | 43.10644 | -76.10804 | 410 ft | 23 kts | 88° |
| 2026-04-25 01:51 | 43.10654 | -76.10580 | 409 ft | 23 kts | 88° |
| 2026-04-25 01:51 | 43.10658 | -76.10362 | 405 ft | 23 kts | 87° |
| 2026-04-25 01:51 | 43.10665 | -76.10151 | 405 ft | 21 kts | 86° |
| 2026-04-25 01:52 | 43.10672 | -76.09952 | 403 ft | 21 kts | 89° |
| 2026-04-25 01:52 | 43.10679 | -76.09757 | 404 ft | 20 kts | 88° |
| 2026-04-25 01:52 | 43.10685 | -76.09579 | 405 ft | 18 kts | 88° |
| 2026-04-25 01:52 | 43.10658 | -76.09441 | 405 ft | 14 kts | 131° |
| 2026-04-25 01:53 | 43.10654 | -76.09340 | 405 ft | 12 kts | 49° |
| 2026-04-25 01:53 | 43.10739 | -76.09276 | 408 ft | 10 kts | 10° |
| 2026-04-25 01:53 | 43.10841 | -76.09263 | 410 ft | 10 kts | 357° |
| 2026-04-25 01:53 | 43.10857 | -76.09264 | 411 ft | 0 kts | 356° |
| 2026-04-25 01:54 | 43.10899 | -76.09271 | 411 ft | 17 kts | 341° |
| 2026-04-25 01:54 | 43.10924 | -76.09450 | 409 ft | 57 kts | 265° |
| 2026-04-25 01:55 | 43.10896 | -76.10435 | 573 ft | 133 kts | 268° |
| 2026-04-25 01:55 | 43.10825 | -76.11822 | 933 ft | 157 kts | 266° |
| 2026-04-25 01:55 | 43.10751 | -76.13390 | 1230 ft | 167 kts | 269° |
| 2026-04-25 01:55 | 43.10689 | -76.14982 | 1518 ft | 168 kts | 268° |
| 2026-04-25 01:56 | 43.10620 | -76.16592 | 1802 ft | 170 kts | 268° |
| 2026-04-25 01:56 | 43.10550 | -76.18217 | 2085 ft | 171 kts | 268° |
| 2026-04-25 01:56 | 43.10480 | -76.19851 | 2369 ft | 172 kts | 268° |
| 2026-04-25 01:56 | 43.10416 | -76.21486 | 2651 ft | 172 kts | 268° |
| 2026-04-25 01:57 | 43.10275 | -76.24734 | 3208 ft | 170 kts | 256° |
| 2026-04-25 01:57 | 43.09610 | -76.25997 | 3468 ft | 166 kts | 207° |
| 2026-04-25 01:57 | 43.08522 | -76.26163 | 3748 ft | 158 kts | 160° |
| 2026-04-25 01:58 | 43.07580 | -76.25456 | 4047 ft | 154 kts | 134° |
| 2026-04-25 01:58 | 43.06956 | -76.24277 | 4339 ft | 153 kts | 121° |
| 2026-04-25 01:58 | 43.06338 | -76.23084 | 4621 ft | 155 kts | 126° |
| 2026-04-25 01:58 | 43.05666 | -76.21915 | 4903 ft | 158 kts | 127° |
| 2026-04-25 01:59 | 43.04974 | -76.20738 | 5173 ft | 160 kts | 127° |
| 2026-04-25 01:59 | 43.04272 | -76.19550 | 5449 ft | 162 kts | 127° |
| 2026-04-25 01:59 | 43.03559 | -76.18349 | 5724 ft | 163 kts | 126° |
| 2026-04-25 01:59 | 43.02839 | -76.17136 | 6010 ft | 165 kts | 126° |
| 2026-04-25 02:00 | 43.02112 | -76.15909 | 6293 ft | 167 kts | 126° |
| 2026-04-25 02:00 | 43.01378 | -76.14674 | 6556 ft | 168 kts | 126° |
| 2026-04-25 02:00 | 43.00638 | -76.13429 | 6819 ft | 170 kts | 126° |
| 2026-04-25 02:00 | 42.99883 | -76.12156 | 7005 ft | 179 kts | 126° |
| 2026-04-25 02:01 | 42.99071 | -76.10792 | 7013 ft | 190 kts | 126° |
| 2026-04-25 02:01 | 42.98228 | -76.09376 | 7015 ft | 194 kts | 126° |
| 2026-04-25 02:01 | 42.97371 | -76.07936 | 7011 ft | 197 kts | 126° |
| 2026-04-25 02:01 | 42.96504 | -76.06479 | 7014 ft | 198 kts | 126° |
| 2026-04-25 02:02 | 42.95635 | -76.05020 | 7011 ft | 199 kts | 126° |
| 2026-04-25 02:02 | 42.94760 | -76.03552 | 7007 ft | 199 kts | 126° |
| 2026-04-25 02:02 | 42.93886 | -76.02087 | 7008 ft | 199 kts | 126° |
| 2026-04-25 02:02 | 42.93013 | -76.00625 | 7005 ft | 198 kts | 126° |
| 2026-04-25 02:03 | 42.92142 | -75.99165 | 7000 ft | 198 kts | 126° |
| 2026-04-25 02:03 | 42.91271 | -75.97706 | 7003 ft | 198 kts | 126° |
| 2026-04-25 02:03 | 42.90399 | -75.96247 | 7002 ft | 198 kts | 126° |
| 2026-04-25 02:03 | 42.89529 | -75.94791 | 6999 ft | 198 kts | 126° |
| 2026-04-25 02:04 | 42.88644 | -75.93313 | 6994 ft | 198 kts | 126° |
| 2026-04-25 02:04 | 42.87774 | -75.91859 | 6985 ft | 198 kts | 126° |
| 2026-04-25 02:04 | 42.86903 | -75.90403 | 6990 ft | 198 kts | 126° |
| 2026-04-25 02:04 | 42.86032 | -75.88949 | 6991 ft | 198 kts | 126° |
| 2026-04-25 02:05 | 42.85158 | -75.87492 | 6988 ft | 199 kts | 126° |
| 2026-04-25 02:05 | 42.84284 | -75.86033 | 6989 ft | 199 kts | 126° |
| 2026-04-25 02:05 | 42.83408 | -75.84572 | 6991 ft | 199 kts | 126° |
| 2026-04-25 02:05 | 42.82534 | -75.83116 | 6994 ft | 199 kts | 126° |
| 2026-04-25 02:06 | 42.81659 | -75.81660 | 6999 ft | 198 kts | 127° |
| 2026-04-25 02:06 | 42.80786 | -75.80207 | 6989 ft | 198 kts | 127° |
| 2026-04-25 02:06 | 42.79913 | -75.78752 | 6994 ft | 198 kts | 127° |
| 2026-04-25 02:06 | 42.79040 | -75.77304 | 6987 ft | 198 kts | 127° |
| 2026-04-25 02:07 | 42.78170 | -75.75856 | 6993 ft | 198 kts | 127° |
| 2026-04-25 02:07 | 42.77298 | -75.74408 | 6988 ft | 197 kts | 127° |
| 2026-04-25 02:07 | 42.76435 | -75.72975 | 6994 ft | 198 kts | 127° |
| 2026-04-25 02:07 | 42.75560 | -75.71524 | 6988 ft | 197 kts | 127° |
| 2026-04-25 02:08 | 42.74686 | -75.70072 | 6987 ft | 198 kts | 127° |
| 2026-04-25 02:08 | 42.73812 | -75.68625 | 6987 ft | 197 kts | 127° |
| 2026-04-25 02:08 | 42.72955 | -75.67203 | 6985 ft | 196 kts | 127° |
| 2026-04-25 02:08 | 42.72083 | -75.65759 | 6993 ft | 196 kts | 127° |
| 2026-04-25 02:09 | 42.71226 | -75.64340 | 6988 ft | 196 kts | 127° |
| 2026-04-25 02:09 | 42.70358 | -75.62904 | 6991 ft | 197 kts | 127° |
| 2026-04-25 02:09 | 42.69487 | -75.61465 | 6988 ft | 197 kts | 127° |
| 2026-04-25 02:09 | 42.68615 | -75.60022 | 6982 ft | 197 kts | 127° |
| 2026-04-25 02:10 | 42.67741 | -75.58577 | 6985 ft | 196 kts | 127° |
| 2026-04-25 02:10 | 42.66875 | -75.57149 | 6981 ft | 196 kts | 127° |
| 2026-04-25 02:10 | 42.66005 | -75.55712 | 6980 ft | 196 kts | 127° |
| 2026-04-25 02:10 | 42.65132 | -75.54271 | 6982 ft | 196 kts | 127° |
| 2026-04-25 02:11 | 42.64275 | -75.52858 | 6981 ft | 196 kts | 127° |
| 2026-04-25 02:11 | 42.63403 | -75.51420 | 6982 ft | 197 kts | 127° |
| 2026-04-25 02:11 | 42.62527 | -75.49976 | 6981 ft | 196 kts | 127° |
| 2026-04-25 02:11 | 42.61655 | -75.48541 | 6986 ft | 197 kts | 127° |
| 2026-04-25 02:12 | 42.60783 | -75.47106 | 6980 ft | 197 kts | 127° |
| 2026-04-25 02:12 | 42.59914 | -75.45676 | 6994 ft | 196 kts | 127° |
| 2026-04-25 02:12 | 42.59054 | -75.44262 | 6992 ft | 196 kts | 127° |
| 2026-04-25 02:12 | 42.58186 | -75.42834 | 6986 ft | 196 kts | 128° |
| 2026-04-25 02:13 | 42.57317 | -75.41409 | 6983 ft | 195 kts | 128° |
| 2026-04-25 02:13 | 42.56450 | -75.39987 | 6983 ft | 196 kts | 128° |
| 2026-04-25 02:13 | 42.55582 | -75.38558 | 6984 ft | 196 kts | 128° |
| 2026-04-25 02:13 | 42.54712 | -75.37131 | 6981 ft | 195 kts | 128° |
| 2026-04-25 02:14 | 42.53845 | -75.35712 | 6985 ft | 196 kts | 128° |
| 2026-04-25 02:14 | 42.52973 | -75.34284 | 6987 ft | 196 kts | 128° |
| 2026-04-25 02:14 | 42.52111 | -75.32869 | 6987 ft | 196 kts | 128° |
| 2026-04-25 02:14 | 42.51240 | -75.31444 | 6981 ft | 195 kts | 128° |
| 2026-04-25 02:15 | 42.50365 | -75.30012 | 6982 ft | 195 kts | 128° |
| 2026-04-25 02:15 | 42.49511 | -75.28615 | 6983 ft | 195 kts | 128° |
| 2026-04-25 02:15 | 42.48640 | -75.27191 | 6977 ft | 195 kts | 128° |